createdAt,value
2023-04-15T00:00:05.484Z,3.22
2023-04-15T00:01:19.159Z,3.00
2023-04-15T00:02:21.024Z,3.80
2023-04-15T00:03:23.135Z,3.35
2023-04-15T00:04:25.007Z,3.38
2023-04-15T00:05:26.750Z,3.13
2023-04-15T00:06:28.380Z,3.38
2023-04-15T00:07:30.012Z,3.50
2023-04-15T00:08:31.757Z,3.33
2023-04-15T00:09:33.417Z,3.10
2023-04-15T00:10:34.998Z,3.67
2023-04-15T00:11:36.664Z,3.30
2023-04-15T00:12:38.310Z,3.03
2023-04-15T00:13:40.442Z,3.42
2023-04-15T00:14:42.079Z,3.47
2023-04-15T00:15:43.758Z,3.10
2023-04-15T00:16:45.445Z,3.20
2023-04-15T00:17:47.132Z,3.35
2023-04-15T00:18:49.162Z,3.63
2023-04-15T00:19:50.873Z,3.28
2023-04-15T00:20:52.670Z,3.55
2023-04-15T00:21:54.327Z,3.55
2023-04-15T00:22:56.633Z,3.45
2023-04-15T00:23:58.256Z,3.13
2023-04-15T00:24:59.870Z,3.22
2023-04-15T00:26:01.588Z,3.50
2023-04-15T00:27:03.678Z,3.53
2023-04-15T00:28:05.309Z,3.45
2023-04-15T00:29:06.950Z,3.42
2023-04-15T00:30:11.772Z,3.17
2023-04-15T00:31:13.533Z,3.60
2023-04-15T00:32:15.850Z,4.15
2023-04-15T00:33:17.803Z,3.40
2023-04-15T00:34:19.458Z,3.60
2023-04-15T00:35:21.747Z,3.10
2023-04-15T00:36:26.332Z,3.58
2023-04-15T00:37:27.887Z,3.65
2023-04-15T00:38:29.770Z,3.30
2023-04-15T00:39:31.434Z,3.58
2023-04-15T00:40:33.387Z,3.47
2023-04-15T00:41:35.144Z,3.38
2023-04-15T00:42:36.989Z,3.17
2023-04-15T00:43:38.636Z,3.80
2023-04-15T00:44:40.252Z,3.47
2023-04-15T00:45:41.906Z,3.70
2023-04-15T00:46:45.569Z,3.10
2023-04-15T00:47:47.240Z,3.50
2023-04-15T00:48:49.205Z,3.40
2023-04-15T00:49:51.107Z,3.13
2023-04-15T00:50:53.161Z,3.30
2023-04-15T00:51:54.770Z,3.53
2023-04-15T00:52:56.866Z,4.05
2023-04-15T00:53:58.759Z,3.60
2023-04-15T00:55:00.977Z,3.58
2023-04-15T00:56:02.606Z,3.30
2023-04-15T00:57:06.410Z,3.55
2023-04-15T00:58:08.000Z,3.88
2023-04-15T00:59:10.037Z,3.78
2023-04-15T01:00:14.446Z,3.72
2023-04-15T01:01:16.309Z,3.33
2023-04-15T01:02:18.081Z,3.33
2023-04-15T01:03:20.994Z,3.30
2023-04-15T01:04:23.052Z,3.42
2023-04-15T01:05:24.988Z,3.13
2023-04-15T01:06:27.295Z,3.20
2023-04-15T01:07:28.816Z,3.60
2023-04-15T01:08:30.840Z,3.25
2023-04-15T01:09:33.297Z,3.30
2023-04-15T01:10:35.993Z,3.47
2023-04-15T01:11:37.753Z,3.10
2023-04-15T01:12:39.609Z,3.58
2023-04-15T01:13:42.501Z,3.55
2023-04-15T01:14:44.187Z,3.17
2023-04-15T01:15:45.814Z,3.08
2023-04-15T01:16:48.539Z,3.22
2023-04-15T01:17:50.186Z,3.38
2023-04-15T01:18:52.171Z,3.42
2023-04-15T01:19:56.601Z,3.70
2023-04-15T01:20:58.214Z,3.65
2023-04-15T01:21:59.971Z,3.78
2023-04-15T01:23:01.585Z,3.55
2023-04-15T01:24:09.750Z,3.90
2023-04-15T01:25:19.468Z,3.60
2023-04-15T01:26:22.156Z,3.63
2023-04-15T01:27:23.886Z,3.70
2023-04-15T01:28:25.906Z,3.90
2023-04-15T01:29:27.987Z,4.25
2023-04-15T01:30:29.915Z,3.80
2023-04-15T01:31:31.955Z,3.90
2023-04-15T01:32:33.628Z,3.90
2023-04-15T01:33:35.496Z,3.60
2023-04-15T01:34:37.074Z,3.72
2023-04-15T01:35:38.982Z,4.25
2023-04-15T01:36:40.978Z,5.25
2023-04-15T01:37:42.653Z,4.93
2023-04-15T01:38:44.212Z,4.15
2023-04-15T01:39:46.328Z,3.70
2023-04-15T01:40:48.004Z,4.32
2023-04-15T01:41:49.572Z,3.85
2023-04-15T01:42:51.197Z,4.00
2023-04-15T01:43:53.244Z,3.40
2023-04-15T01:44:54.864Z,3.65
2023-04-15T01:45:56.618Z,3.75
2023-04-15T01:46:58.689Z,3.78
2023-04-15T01:48:02.173Z,3.47
2023-04-15T01:49:03.824Z,3.50
2023-04-15T01:50:07.504Z,4.00
2023-04-15T01:51:09.118Z,4.15
2023-04-15T01:52:10.663Z,4.00
2023-04-15T01:53:12.258Z,4.78
2023-04-15T01:54:13.915Z,4.72
2023-04-15T01:55:15.507Z,4.38
2023-04-15T01:56:17.115Z,4.03
2023-04-15T01:57:18.829Z,4.47
2023-04-15T01:58:20.639Z,3.55
2023-04-15T01:59:22.847Z,3.70
2023-04-15T02:00:24.878Z,3.25
2023-04-15T02:02:29.286Z,2.92
2023-04-15T02:03:31.576Z,3.40
2023-04-15T02:04:34.181Z,3.60
2023-04-15T02:05:35.968Z,3.22
2023-04-15T02:06:39.329Z,3.33
2023-04-15T02:07:40.855Z,2.85
2023-04-15T02:08:43.465Z,3.25
2023-04-15T02:09:46.114Z,3.03
2023-04-15T02:10:48.488Z,3.47
2023-04-15T02:11:51.550Z,3.58
2023-04-15T02:12:54.224Z,3.10
2023-04-15T02:13:56.924Z,3.42
2023-04-15T02:15:00.433Z,3.30
2023-04-15T02:16:02.124Z,3.33
2023-04-15T02:17:07.382Z,3.50
2023-04-15T02:18:09.061Z,3.30
2023-04-15T02:19:11.066Z,3.20
2023-04-15T02:20:12.705Z,3.67
2023-04-15T02:21:14.535Z,3.60
2023-04-15T02:22:18.728Z,3.30
2023-04-15T02:23:21.336Z,3.10
2023-04-15T02:24:22.937Z,3.33
2023-04-15T02:25:24.594Z,3.58
2023-04-15T02:26:26.231Z,3.10
2023-04-15T02:27:30.593Z,3.25
2023-04-15T02:28:32.216Z,3.33
2023-04-15T02:29:33.785Z,3.28
2023-04-15T02:30:36.110Z,3.33
2023-04-15T02:31:40.552Z,3.20
2023-04-15T02:32:45.000Z,3.88
2023-04-15T02:33:46.871Z,2.90
2023-04-15T02:34:48.481Z,3.20
2023-04-15T02:35:50.197Z,3.33
2023-04-15T02:36:55.002Z,3.05
2023-04-15T02:37:56.958Z,3.40
2023-04-15T02:38:58.868Z,2.90
2023-04-15T02:40:01.359Z,3.15
2023-04-15T02:41:04.806Z,3.53
2023-04-15T02:42:06.375Z,3.50
2023-04-15T02:43:08.028Z,3.17
2023-04-15T02:44:11.424Z,3.25
2023-04-15T02:45:13.380Z,3.13
2023-04-15T02:46:16.180Z,3.17
2023-04-15T02:47:17.868Z,3.30
2023-04-15T02:48:20.448Z,3.40
2023-04-15T02:49:23.025Z,3.20
2023-04-15T02:50:25.706Z,3.50
2023-04-15T02:52:32.984Z,3.58
2023-04-15T02:53:34.575Z,3.28
2023-04-15T02:54:36.356Z,3.13
2023-04-15T02:55:37.965Z,3.65
2023-04-15T02:56:39.545Z,4.00
2023-04-15T02:57:41.469Z,3.20
2023-04-15T02:58:45.695Z,3.60
2023-04-15T03:00:50.904Z,3.40
2023-04-15T03:01:52.638Z,3.90
2023-04-15T03:02:59.440Z,3.63
2023-04-15T03:04:01.363Z,3.75
2023-04-15T03:05:03.077Z,3.35
2023-04-15T03:06:05.435Z,3.97
2023-04-15T03:07:07.165Z,3.40
2023-04-15T03:08:08.809Z,3.10
2023-04-15T03:09:10.465Z,3.53
2023-04-15T03:11:15.333Z,3.20
2023-04-15T03:12:16.923Z,3.33
2023-04-15T03:13:20.119Z,3.45
2023-04-15T03:14:22.451Z,3.35
2023-04-15T03:15:24.167Z,3.60
2023-04-15T03:16:27.731Z,3.65
2023-04-15T03:17:29.370Z,3.60
2023-04-15T03:18:31.261Z,3.42
2023-04-15T03:19:36.505Z,3.67
2023-04-15T03:20:38.364Z,3.60
2023-04-15T03:21:39.992Z,3.35
2023-04-15T03:22:41.654Z,3.13
2023-04-15T03:23:43.516Z,3.33
2023-04-15T03:24:45.145Z,3.53
2023-04-15T03:25:46.840Z,3.35
2023-04-15T03:26:49.522Z,3.65
2023-04-15T03:27:52.479Z,3.17
2023-04-15T03:28:54.590Z,4.32
2023-04-15T03:29:56.826Z,3.65
2023-04-15T03:31:00.560Z,3.72
2023-04-15T03:32:02.233Z,4.18
2023-04-15T03:33:08.543Z,3.60
2023-04-15T03:34:10.680Z,3.58
2023-04-15T03:35:12.490Z,3.42
2023-04-15T03:36:14.324Z,3.13
2023-04-15T03:37:16.050Z,2.72
2023-04-15T03:38:18.131Z,2.80
2023-04-15T03:39:19.779Z,2.47
2023-04-15T03:40:21.590Z,2.83
2023-04-15T03:41:23.605Z,2.83
2023-04-15T03:42:25.186Z,2.83
2023-04-15T03:43:27.302Z,3.08
2023-04-15T03:44:28.987Z,2.85
2023-04-15T03:45:30.914Z,2.72
2023-04-15T03:46:32.636Z,2.78
2023-04-15T03:47:34.252Z,3.38
2023-04-15T03:48:36.170Z,2.78
2023-04-15T03:49:37.813Z,2.70
2023-04-15T03:50:39.464Z,2.72
2023-04-15T03:51:41.260Z,2.75
2023-04-15T03:52:42.872Z,2.72
2023-04-15T03:53:44.576Z,2.72
2023-04-15T03:54:46.426Z,2.83
2023-04-15T03:55:47.988Z,2.55
2023-04-15T03:56:49.582Z,2.72
2023-04-15T03:57:51.307Z,2.60
2023-04-15T03:58:52.964Z,2.65
2023-04-15T03:59:54.554Z,2.50
2023-04-15T04:00:56.300Z,2.63
2023-04-15T04:01:57.996Z,2.63
2023-04-15T04:02:59.902Z,2.40
2023-04-15T04:04:02.303Z,2.70
2023-04-15T04:05:04.537Z,2.25
2023-04-15T04:06:06.361Z,2.70
2023-04-15T04:07:07.958Z,2.33
2023-04-15T04:08:09.716Z,2.50
2023-04-15T04:09:11.356Z,2.50
2023-04-15T04:10:13.074Z,2.60
2023-04-15T04:11:14.752Z,2.40
2023-04-15T04:12:16.567Z,2.50
2023-04-15T04:13:18.187Z,2.63
2023-04-15T04:14:19.845Z,2.45
2023-04-15T04:15:21.494Z,2.38
2023-04-15T04:16:23.198Z,2.50
2023-04-15T04:17:25.002Z,2.65
2023-04-15T04:18:26.662Z,2.33
2023-04-15T04:19:29.959Z,2.60
2023-04-15T04:20:32.149Z,2.45
2023-04-15T04:21:34.213Z,2.60
2023-04-15T04:22:42.786Z,2.60
2023-04-15T04:23:44.416Z,2.45
2023-04-15T04:24:46.284Z,2.40
2023-04-15T04:25:47.912Z,2.80
2023-04-15T04:26:49.547Z,2.55
2023-04-15T04:27:51.342Z,2.63
2023-04-15T04:28:52.984Z,2.70
2023-04-15T04:29:54.588Z,2.40
2023-04-15T04:30:56.376Z,2.70
2023-04-15T04:31:58.016Z,2.70
2023-04-15T04:32:59.863Z,2.63
2023-04-15T04:34:01.523Z,2.95
2023-04-15T04:35:04.361Z,2.78
2023-04-15T04:36:06.424Z,2.25
2023-04-15T04:37:08.025Z,2.70
2023-04-15T04:38:09.675Z,2.40
2023-04-15T04:39:11.272Z,2.60
2023-04-15T04:40:13.175Z,2.42
2023-04-15T04:41:14.820Z,2.58
2023-04-15T04:42:16.688Z,2.60
2023-04-15T04:43:18.316Z,2.30
2023-04-15T04:44:19.932Z,2.50
2023-04-15T04:45:21.564Z,2.70
2023-04-15T04:46:23.848Z,2.40
2023-04-15T04:47:25.847Z,2.92
2023-04-15T04:48:27.603Z,2.25
2023-04-15T04:49:29.200Z,2.45
2023-04-15T04:50:31.081Z,2.08
2023-04-15T04:51:32.742Z,1.98
2023-04-15T04:52:34.357Z,2.25
2023-04-15T04:53:37.624Z,2.00
2023-04-15T04:54:39.253Z,2.30
2023-04-15T04:55:40.853Z,2.00
2023-04-15T04:56:42.435Z,2.33
2023-04-15T04:57:44.109Z,2.40
2023-04-15T04:58:45.861Z,2.33
2023-04-15T04:59:47.632Z,2.08
2023-04-15T05:00:49.253Z,2.03
2023-04-15T05:01:51.338Z,1.88
2023-04-15T05:02:53.206Z,2.00
2023-04-15T05:03:55.002Z,1.92
2023-04-15T05:04:56.860Z,2.10
2023-04-15T05:05:58.614Z,1.90
2023-04-15T05:07:00.217Z,1.80
2023-04-15T05:08:02.033Z,1.90
2023-04-15T05:09:03.908Z,2.10
2023-04-15T05:10:06.600Z,2.28
2023-04-15T05:11:08.506Z,2.03
2023-04-15T05:12:14.868Z,2.03
2023-04-15T05:13:16.472Z,1.98
2023-04-15T05:14:18.138Z,1.75
2023-04-15T05:15:20.417Z,1.90
2023-04-15T05:16:22.096Z,2.47
2023-04-15T05:17:23.734Z,2.10
2023-04-15T05:18:25.497Z,1.88
2023-04-15T05:19:27.227Z,1.90
2023-04-15T05:20:29.038Z,2.08
2023-04-15T05:21:31.731Z,1.70
2023-04-15T05:22:33.390Z,1.98
2023-04-15T05:23:34.971Z,1.60
2023-04-15T05:24:36.667Z,1.80
2023-04-15T05:25:38.213Z,1.77
2023-04-15T05:26:39.833Z,1.80
2023-04-15T05:27:41.538Z,1.70
2023-04-15T05:28:43.172Z,1.90
2023-04-15T05:29:44.939Z,1.70
2023-04-15T05:30:46.910Z,1.60
2023-04-15T05:31:48.631Z,2.00
2023-04-15T05:32:50.306Z,1.60
2023-04-15T05:33:52.019Z,1.70
2023-04-15T05:34:53.641Z,1.85
2023-04-15T05:35:55.569Z,1.70
2023-04-15T05:36:57.219Z,1.60
2023-04-15T05:37:58.831Z,1.60
2023-04-15T05:39:00.955Z,1.60
2023-04-15T05:40:02.748Z,1.73
2023-04-15T05:41:04.441Z,1.73
2023-04-15T05:42:06.241Z,1.70
2023-04-15T05:43:07.903Z,1.67
2023-04-15T05:44:09.504Z,1.70
2023-04-15T05:45:11.456Z,1.83
2023-04-15T05:46:13.061Z,1.77
2023-04-15T05:47:14.790Z,1.67
2023-04-15T05:48:16.427Z,1.42
2023-04-15T05:49:18.034Z,1.90
2023-04-15T05:50:20.868Z,2.10
2023-04-15T05:51:22.488Z,1.70
2023-04-15T05:52:24.113Z,1.70
2023-04-15T05:53:26.000Z,1.50
2023-04-15T05:54:27.931Z,2.03
2023-04-15T05:55:29.615Z,2.35
2023-04-15T05:56:31.699Z,2.10
2023-04-15T05:57:33.291Z,1.55
2023-04-15T05:58:34.893Z,1.80
2023-04-15T05:59:36.495Z,1.50
2023-04-15T06:00:38.672Z,1.63
2023-04-15T06:01:40.585Z,2.20
2023-04-15T06:02:42.650Z,1.65
2023-04-15T06:03:44.898Z,1.70
2023-04-15T06:04:46.664Z,1.48
2023-04-15T06:05:48.426Z,1.85
2023-04-15T06:06:50.040Z,1.92
2023-04-15T06:07:52.131Z,1.67
2023-04-15T06:08:55.732Z,1.48
2023-04-15T06:09:57.321Z,1.75
2023-04-15T06:10:58.998Z,1.50
2023-04-15T06:12:01.829Z,1.75
2023-04-15T06:13:04.987Z,1.50
2023-04-15T06:14:06.879Z,1.52
2023-04-15T06:15:10.414Z,1.50
2023-04-15T06:16:12.207Z,1.90
2023-04-15T06:17:15.001Z,1.80
2023-04-15T06:18:16.608Z,1.60
2023-04-15T06:19:18.485Z,1.55
2023-04-15T06:20:20.220Z,2.17
2023-04-15T06:21:21.914Z,1.55
2023-04-15T06:22:23.914Z,1.70
2023-04-15T06:23:26.947Z,1.60
2023-04-15T06:24:29.626Z,1.90
2023-04-15T06:25:31.285Z,1.50
2023-04-15T06:26:32.983Z,1.40
2023-04-15T06:27:34.651Z,1.58
2023-04-15T06:28:36.274Z,1.70
2023-04-15T06:29:37.908Z,1.80
2023-04-15T06:30:40.026Z,1.58
2023-04-15T06:31:41.945Z,1.67
2023-04-15T06:32:43.826Z,1.60
2023-04-15T06:33:45.540Z,1.70
2023-04-15T06:34:47.205Z,1.80
2023-04-15T06:35:49.717Z,1.60
2023-04-15T06:36:51.395Z,1.70
2023-04-15T06:37:53.023Z,1.50
2023-04-15T06:38:54.665Z,1.55
2023-04-15T06:39:56.281Z,1.40
2023-04-15T06:40:57.865Z,2.15
2023-04-15T06:41:59.495Z,1.50
2023-04-15T06:43:01.085Z,1.90
2023-04-15T06:44:02.814Z,1.92
2023-04-15T06:45:04.877Z,2.20
2023-04-15T06:46:06.529Z,1.98
2023-04-15T06:47:09.200Z,2.05
2023-04-15T06:48:10.840Z,1.90
2023-04-15T06:49:12.765Z,1.90
2023-04-15T06:50:16.580Z,2.15
2023-04-15T06:51:18.238Z,2.10
2023-04-15T06:52:19.834Z,1.80
2023-04-15T06:53:22.132Z,1.58
2023-04-15T06:54:23.786Z,1.48
2023-04-15T06:55:25.357Z,1.80
2023-04-15T06:56:27.119Z,1.40
2023-04-15T06:57:28.797Z,1.30
2023-04-15T06:58:30.422Z,1.40
2023-04-15T06:59:32.042Z,1.65
2023-04-15T07:00:34.048Z,1.50
2023-04-15T07:01:36.041Z,1.40
2023-04-15T07:02:38.098Z,1.40
2023-04-15T07:03:39.796Z,1.42
2023-04-15T07:04:41.466Z,1.35
2023-04-15T07:05:43.527Z,1.40
2023-04-15T07:06:45.181Z,1.50
2023-04-15T07:07:46.829Z,1.30
2023-04-15T07:08:48.739Z,1.40
2023-04-15T07:09:50.574Z,1.50
2023-04-15T07:10:52.371Z,1.50
2023-04-15T07:11:54.034Z,1.52
2023-04-15T07:12:55.657Z,1.65
2023-04-15T07:13:58.362Z,1.45
2023-04-15T07:14:59.962Z,1.30
2023-04-15T07:16:01.828Z,1.40
2023-04-15T07:17:03.466Z,1.58
2023-04-15T07:18:05.153Z,1.60
2023-04-15T07:19:07.400Z,1.50
2023-04-15T07:20:09.349Z,1.30
2023-04-15T07:21:11.356Z,1.30
2023-04-15T07:22:13.078Z,1.27
2023-04-15T07:23:14.790Z,1.95
2023-04-15T07:24:18.225Z,1.50
2023-04-15T07:25:19.855Z,1.60
2023-04-15T07:26:21.560Z,1.60
2023-04-15T07:27:23.215Z,1.40
2023-04-15T07:28:24.932Z,2.20
2023-04-15T07:29:27.150Z,1.90
2023-04-15T07:30:29.545Z,1.70
2023-04-15T07:31:31.428Z,1.50
2023-04-15T07:32:33.112Z,1.80
2023-04-15T07:33:34.859Z,1.52
2023-04-15T07:34:36.611Z,1.50
2023-04-15T07:35:38.279Z,1.30
2023-04-15T07:36:40.444Z,1.60
2023-04-15T07:37:43.365Z,1.30
2023-04-15T07:38:45.028Z,1.50
2023-04-15T07:39:47.226Z,1.90
2023-04-15T07:40:49.619Z,1.40
2023-04-15T07:41:51.290Z,1.50
2023-04-15T07:42:53.149Z,1.60
2023-04-15T07:43:55.294Z,1.38
2023-04-15T07:44:56.986Z,1.67
2023-04-15T07:45:58.669Z,1.50
2023-04-15T07:47:00.628Z,2.17
2023-04-15T07:48:03.001Z,1.50
2023-04-15T07:49:04.860Z,1.60
2023-04-15T07:50:06.849Z,1.35
2023-04-15T07:51:08.857Z,1.60
2023-04-15T07:52:10.525Z,1.50
2023-04-15T07:53:12.209Z,1.70
2023-04-15T07:54:14.092Z,1.23
2023-04-15T07:55:19.269Z,1.55
2023-04-15T07:56:20.916Z,1.50
2023-04-15T07:57:22.578Z,1.40
2023-04-15T07:58:24.236Z,1.55
2023-04-15T07:59:27.646Z,1.60
2023-04-15T08:00:29.346Z,1.73
2023-04-15T08:01:31.639Z,1.60
2023-04-15T08:02:33.464Z,1.60
2023-04-15T08:03:35.412Z,1.63
2023-04-15T08:04:37.546Z,1.60
2023-04-15T08:05:39.719Z,1.40
2023-04-15T08:06:41.616Z,1.75
2023-04-15T08:07:43.214Z,1.60
2023-04-15T08:08:44.832Z,1.60
2023-04-15T08:09:47.001Z,1.60
2023-04-15T08:10:50.229Z,1.73
2023-04-15T08:11:53.403Z,1.42
2023-04-15T08:12:55.139Z,1.63
2023-04-15T08:13:56.761Z,1.50
2023-04-15T08:14:58.434Z,1.50
2023-04-15T08:16:19.870Z,1.50
2023-04-15T08:17:22.016Z,1.42
2023-04-15T08:18:23.864Z,1.33
2023-04-15T08:19:25.526Z,1.40
2023-04-15T08:20:27.186Z,2.15
2023-04-15T08:21:30.917Z,1.63
2023-04-15T08:22:32.649Z,1.55
2023-04-15T08:23:34.667Z,1.50
2023-04-15T08:24:36.754Z,1.70
2023-04-15T08:25:41.142Z,1.77
2023-04-15T08:26:43.251Z,1.50
2023-04-15T08:27:44.868Z,1.48
2023-04-15T08:28:46.920Z,1.38
2023-04-15T08:29:48.653Z,1.50
2023-04-15T08:30:50.591Z,1.50
2023-04-15T08:31:53.976Z,1.58
2023-04-15T08:32:55.773Z,1.65
2023-04-15T08:33:57.869Z,1.88
2023-04-15T08:34:59.485Z,1.55
2023-04-15T08:36:01.251Z,1.75
2023-04-15T08:37:02.857Z,1.80
2023-04-15T08:38:04.462Z,1.50
2023-04-15T08:39:06.108Z,1.90
2023-04-15T08:40:09.327Z,1.90
2023-04-15T08:41:47.851Z,1.80
2023-04-15T08:42:53.144Z,1.80
2023-04-15T08:43:58.119Z,1.70
2023-04-15T08:45:01.622Z,1.92
2023-04-15T08:46:04.440Z,1.67
2023-04-15T08:47:08.283Z,1.85
2023-04-15T08:48:16.544Z,2.22
2023-04-15T08:49:19.420Z,1.92
2023-04-15T08:50:21.155Z,1.80
2023-04-15T08:51:24.564Z,1.92
2023-04-15T08:52:26.749Z,1.67
2023-04-15T08:53:29.889Z,1.58
2023-04-15T08:54:31.663Z,1.75
2023-04-15T08:55:35.859Z,1.70
2023-04-15T08:56:39.046Z,1.60
2023-04-15T08:57:40.665Z,1.60
2023-04-15T08:58:44.702Z,1.80
2023-04-15T08:59:46.705Z,1.70
2023-04-15T09:00:48.754Z,1.85
2023-04-15T09:01:53.376Z,1.67
2023-04-15T09:02:59.265Z,1.80
2023-04-15T09:04:03.047Z,1.70
2023-04-15T09:05:06.656Z,1.70
2023-04-15T09:06:08.685Z,1.70
2023-04-15T09:07:10.264Z,1.70
2023-04-15T09:08:11.911Z,1.83
2023-04-15T09:09:14.529Z,2.03
2023-04-15T09:10:16.227Z,1.65
2023-04-15T09:11:20.251Z,1.67
2023-04-15T09:12:22.232Z,1.83
2023-04-15T09:13:23.824Z,1.77
2023-04-15T09:14:25.489Z,1.80
2023-04-15T09:15:29.980Z,1.70
2023-04-15T09:16:31.847Z,2.00
2023-04-15T09:17:34.588Z,1.77
2023-04-15T09:18:39.473Z,2.10
2023-04-15T09:19:41.161Z,1.98
2023-04-15T09:20:43.074Z,1.70
2023-04-15T09:21:47.729Z,2.50
2023-04-15T09:22:50.153Z,2.05
2023-04-15T09:24:00.628Z,2.10
2023-04-15T09:25:02.360Z,1.90
2023-04-15T09:26:05.103Z,1.98
2023-04-15T09:27:06.954Z,1.80
2023-04-15T09:28:08.646Z,2.10
2023-04-15T09:29:13.561Z,2.05
2023-04-15T09:30:16.903Z,2.10
2023-04-15T09:31:19.238Z,2.05
2023-04-15T09:32:23.477Z,1.75
2023-04-15T09:33:27.107Z,2.05
2023-04-15T09:34:38.531Z,1.95
2023-04-15T09:35:40.672Z,2.00
2023-04-15T09:36:49.684Z,1.90
2023-04-15T09:37:52.943Z,1.90
2023-04-15T09:38:58.922Z,2.10
2023-04-15T09:40:00.627Z,2.28
2023-04-15T09:41:02.539Z,1.80
2023-04-15T09:42:13.217Z,2.00
2023-04-15T09:43:17.294Z,2.10
2023-04-15T09:44:26.017Z,2.22
2023-04-15T09:45:29.676Z,2.20
2023-04-15T09:46:42.291Z,2.17
2023-04-15T09:47:44.469Z,2.17
2023-04-15T09:48:46.641Z,2.03
2023-04-15T09:49:59.075Z,2.17
2023-04-15T09:51:01.837Z,2.40
2023-04-15T09:52:05.761Z,2.30
2023-04-15T09:53:09.872Z,2.22
2023-04-15T09:54:11.467Z,2.20
2023-04-15T09:55:14.383Z,2.13
2023-04-15T09:56:15.939Z,2.28
2023-04-15T09:57:17.597Z,2.15
2023-04-15T09:58:20.902Z,2.20
2023-04-15T09:59:22.628Z,2.20
2023-04-15T10:00:24.324Z,2.60
2023-04-15T10:01:25.978Z,2.20
2023-04-15T10:02:28.466Z,2.38
2023-04-15T10:04:36.583Z,2.08
2023-04-15T10:05:38.594Z,2.30
2023-04-15T10:06:41.314Z,2.30
2023-04-15T10:07:43.572Z,2.50
2023-04-15T10:08:46.116Z,2.28
2023-04-15T10:09:49.179Z,2.60
2023-04-15T10:10:52.223Z,2.42
2023-04-15T10:11:53.832Z,2.67
2023-04-15T10:12:56.107Z,2.47
2023-04-15T10:13:57.842Z,2.70
2023-04-15T10:15:05.021Z,2.38
2023-04-15T10:16:11.244Z,2.45
2023-04-15T10:17:13.758Z,2.42
2023-04-15T10:19:19.669Z,2.40
2023-04-15T10:20:22.802Z,2.47
2023-04-15T10:21:24.905Z,2.63
2023-04-15T10:22:28.233Z,2.45
2023-04-15T10:23:30.602Z,2.72
2023-04-15T10:24:33.021Z,2.30
2023-04-15T10:26:36.943Z,2.45
2023-04-15T10:27:41.029Z,2.85
2023-04-15T10:28:42.937Z,2.33
2023-04-15T10:29:44.699Z,2.40
2023-04-15T10:30:47.990Z,2.60
2023-04-15T10:31:49.823Z,2.53
2023-04-15T10:32:51.796Z,2.90
2023-04-15T10:33:53.559Z,2.70
2023-04-15T10:34:55.648Z,2.55
2023-04-15T10:35:57.533Z,2.53
2023-04-15T10:37:03.124Z,2.50
2023-04-15T10:38:37.843Z,2.63
2023-04-15T10:39:41.654Z,2.40
2023-04-15T10:40:45.352Z,2.50
2023-04-15T10:42:06.284Z,2.67
2023-04-15T10:43:07.881Z,2.50
2023-04-15T10:44:09.449Z,2.42
2023-04-15T10:45:17.740Z,2.58
2023-04-15T10:46:21.962Z,2.42
2023-04-15T10:47:23.980Z,2.40
2023-04-15T10:48:25.920Z,2.55
2023-04-15T10:49:27.648Z,2.38
2023-04-15T10:50:31.687Z,2.55
2023-04-15T10:51:33.383Z,3.10
2023-04-15T10:52:34.944Z,2.83
2023-04-15T10:53:37.882Z,2.50
2023-04-15T10:54:39.794Z,2.53
2023-04-15T10:55:41.456Z,2.55
2023-04-15T10:56:44.522Z,2.60
2023-04-15T10:57:46.085Z,2.75
2023-04-15T10:58:47.692Z,2.55
2023-04-15T11:00:04.585Z,2.40
2023-04-15T11:01:07.157Z,2.60
2023-04-15T11:02:09.063Z,2.40
2023-04-15T11:03:10.963Z,2.50
2023-04-15T11:04:12.829Z,2.85
2023-04-15T11:05:16.351Z,2.90
2023-04-15T11:06:17.974Z,2.97
2023-04-15T11:07:43.700Z,2.60
2023-04-15T11:08:59.542Z,2.55
2023-04-15T11:10:01.827Z,2.60
2023-04-15T11:11:03.628Z,2.70
2023-04-15T11:12:09.801Z,2.63
2023-04-15T11:13:11.641Z,2.70
2023-04-15T11:14:16.370Z,2.85
2023-04-15T11:15:41.682Z,3.13
2023-04-15T11:16:45.034Z,2.70
2023-04-15T11:17:46.930Z,3.28
2023-04-15T11:18:55.763Z,3.13
2023-04-15T11:19:58.255Z,2.95
2023-04-15T11:22:10.212Z,3.35
2023-04-15T11:23:15.284Z,3.40
2023-04-15T11:24:29.246Z,3.25
2023-04-15T11:25:33.533Z,3.20
2023-04-15T11:26:35.668Z,3.17
2023-04-15T11:27:37.936Z,2.40
2023-04-15T11:28:41.651Z,2.40
2023-04-15T11:29:44.302Z,2.03
2023-04-15T11:30:45.901Z,2.10
2023-04-15T11:31:49.729Z,2.00
2023-04-15T11:32:58.481Z,2.20
2023-04-15T11:34:02.374Z,2.00
2023-04-15T11:35:04.772Z,2.13
2023-04-15T11:36:07.656Z,1.52
2023-04-15T11:38:16.778Z,1.52
2023-04-15T11:39:18.398Z,1.60
2023-04-15T11:40:27.968Z,1.50
2023-04-15T11:41:29.570Z,1.50
2023-04-15T11:42:42.765Z,1.75
2023-04-15T11:43:48.457Z,1.45
2023-04-15T11:44:50.074Z,1.60
2023-04-15T11:45:58.423Z,1.80
2023-04-15T11:47:00.087Z,1.50
2023-04-15T11:48:12.283Z,1.40
2023-04-15T11:49:29.550Z,1.27
2023-04-15T11:50:31.249Z,1.55
2023-04-15T11:51:34.454Z,1.33
2023-04-15T11:52:36.183Z,1.88
2023-04-15T11:53:41.264Z,1.60
2023-04-15T11:54:42.949Z,2.03
2023-04-15T11:55:47.043Z,1.80
2023-04-15T11:56:52.876Z,1.50
2023-04-15T11:58:08.746Z,1.65
2023-04-15T11:59:10.399Z,1.50
2023-04-15T12:00:12.774Z,1.48
2023-04-15T12:01:14.420Z,1.40
2023-04-15T12:02:16.546Z,1.40
2023-04-15T12:03:27.692Z,1.27
2023-04-15T12:04:29.919Z,1.40
2023-04-15T12:05:31.860Z,1.23
2023-04-15T12:06:38.916Z,1.48
2023-04-15T12:08:00.936Z,1.50
2023-04-15T12:09:16.814Z,1.42
2023-04-15T12:10:18.517Z,1.38
2023-04-15T12:11:21.550Z,1.45
2023-04-15T12:12:27.513Z,1.30
2023-04-15T12:13:29.148Z,1.50
2023-04-15T12:14:32.544Z,1.30
2023-04-15T12:15:39.327Z,1.40
2023-04-15T12:16:54.180Z,1.60
2023-04-15T12:17:55.941Z,1.60
2023-04-15T12:18:59.241Z,1.85
2023-04-15T12:20:00.919Z,1.90
2023-04-15T12:21:10.819Z,1.60
2023-04-15T12:22:15.267Z,1.80
2023-04-15T12:23:20.088Z,1.90
2023-04-15T12:24:24.880Z,1.73
2023-04-15T12:25:35.850Z,1.52
2023-04-15T12:26:44.812Z,1.70
2023-04-15T12:27:52.160Z,1.60
2023-04-15T12:29:08.259Z,1.85
2023-04-15T12:30:11.624Z,1.52
2023-04-15T12:31:14.540Z,2.00
2023-04-15T12:32:17.338Z,1.60
2023-04-15T12:33:19.015Z,1.65
2023-04-15T12:34:35.770Z,1.65
2023-04-15T12:35:37.527Z,1.48
2023-04-15T12:36:39.155Z,1.50
2023-04-15T12:37:41.001Z,1.70
2023-04-15T12:38:42.568Z,1.60
2023-04-15T12:39:48.015Z,1.60
2023-04-15T12:40:49.625Z,1.42
2023-04-15T12:41:52.434Z,1.92
2023-04-15T12:42:54.054Z,2.03
2023-04-15T12:43:55.692Z,1.73
2023-04-15T12:44:57.488Z,1.90
2023-04-15T12:45:59.141Z,1.52
2023-04-15T12:47:00.994Z,1.70
2023-04-15T12:48:02.975Z,1.85
2023-04-15T12:49:04.770Z,1.90
2023-04-15T12:50:07.075Z,2.08
2023-04-15T12:51:08.612Z,1.80
2023-04-15T12:52:10.431Z,1.70
2023-04-15T12:53:12.025Z,2.08
2023-04-15T12:54:13.649Z,2.20
2023-04-15T12:55:16.283Z,1.95
2023-04-15T12:56:18.185Z,1.90
2023-04-15T12:57:19.828Z,2.30
2023-04-15T12:58:21.505Z,1.73
2023-04-15T12:59:24.216Z,2.10
2023-04-15T13:00:26.091Z,2.10
2023-04-15T13:01:27.818Z,1.80
2023-04-15T13:02:29.734Z,1.80
2023-04-15T13:03:31.835Z,1.70
2023-04-15T13:04:33.629Z,2.00
2023-04-15T13:05:37.067Z,2.30
2023-04-15T13:06:38.822Z,1.90
2023-04-15T13:07:40.561Z,1.50
2023-04-15T13:08:47.955Z,1.70
2023-04-15T13:09:56.910Z,1.70
2023-04-15T13:10:58.788Z,1.92
2023-04-15T13:12:00.770Z,1.85
2023-04-15T13:13:03.205Z,1.70
2023-04-15T13:14:06.448Z,2.00
2023-04-15T13:15:11.303Z,1.90
2023-04-15T13:16:12.943Z,1.70
2023-04-15T13:17:14.591Z,1.80
2023-04-15T13:18:16.555Z,1.83
2023-04-15T13:19:18.174Z,1.85
2023-04-15T13:20:19.826Z,2.05
2023-04-15T13:21:21.810Z,1.92
2023-04-15T13:22:23.512Z,1.77
2023-04-15T13:23:25.242Z,1.80
2023-04-15T13:24:26.869Z,1.85
2023-04-15T13:25:28.546Z,2.40
2023-04-15T13:26:31.304Z,1.83
2023-04-15T13:27:33.663Z,1.88
2023-04-15T13:28:35.308Z,1.90
2023-04-15T13:29:37.043Z,2.00
2023-04-15T13:30:39.265Z,2.05
2023-04-15T13:31:41.022Z,1.60
2023-04-15T13:32:42.669Z,2.13
2023-04-15T13:33:44.379Z,2.20
2023-04-15T13:34:46.137Z,2.00
2023-04-15T13:35:47.739Z,2.30
2023-04-15T13:36:49.395Z,2.47
2023-04-15T13:37:51.130Z,2.10
2023-04-15T13:38:52.829Z,2.10
2023-04-15T13:39:55.493Z,2.22
2023-04-15T13:40:57.128Z,2.20
2023-04-15T13:41:58.961Z,2.08
2023-04-15T13:43:00.644Z,2.22
2023-04-15T13:44:02.525Z,2.30
2023-04-15T13:45:04.909Z,2.17
2023-04-15T13:46:06.595Z,2.13
2023-04-15T13:47:08.399Z,2.13
2023-04-15T13:48:10.024Z,1.90
2023-04-15T13:49:11.697Z,2.10
2023-04-15T13:50:13.658Z,2.00
2023-04-15T13:51:15.834Z,1.90
2023-04-15T13:52:17.813Z,1.83
2023-04-15T13:53:19.506Z,2.25
2023-04-15T13:54:21.272Z,1.80
2023-04-15T13:55:25.409Z,2.03
2023-04-15T13:56:28.829Z,2.15
2023-04-15T13:57:34.290Z,1.80
2023-04-15T13:58:36.951Z,2.15
2023-04-15T13:59:38.621Z,2.20
2023-04-15T14:00:40.831Z,2.28
2023-04-15T14:01:43.797Z,2.22
2023-04-15T14:02:46.045Z,2.15
2023-04-15T14:03:47.971Z,2.20
2023-04-15T14:04:49.850Z,2.42
2023-04-15T14:05:55.909Z,2.53